sensor_id;sensor_type;location;lat;lon;timestamp;temperature;humidity
41928;DHT22;27616;51.420;6.788;2023-02-28T00:00:35;0.10;99.90
41928;DHT22;27616;51.420;6.788;2023-02-28T00:03:01;0.20;99.90
41928;DHT22;27616;51.420;6.788;2023-02-28T00:05:28;0.10;99.90
41928;DHT22;27616;51.420;6.788;2023-02-28T00:07:54;0.10;99.90
41928;DHT22;27616;51.420;6.788;2023-02-28T00:10:23;0.10;99.90
41928;DHT22;27616;51.420;6.788;2023-02-28T00:12:50;0.00;99.90
41928;DHT22;27616;51.420;6.788;2023-02-28T00:15:17;0.00;99.90
41928;DHT22;27616;51.420;6.788;2023-02-28T00:17:43;0.00;99.90
41928;DHT22;27616;51.420;6.788;2023-02-28T00:20:11;-0.10;99.90
41928;DHT22;27616;51.420;6.788;2023-02-28T00:22:45;-0.10;99.90
41928;DHT22;27616;51.420;6.788;2023-02-28T00:25:14;-0.10;99.90
41928;DHT22;27616;51.420;6.788;2023-02-28T00:27:40;-0.10;99.90
41928;DHT22;27616;51.420;6.788;2023-02-28T00:30:08;-0.10;99.90
41928;DHT22;27616;51.420;6.788;2023-02-28T00:32:36;-0.20;99.90
41928;DHT22;27616;51.420;6.788;2023-02-28T00:35:03;-0.10;99.90
41928;DHT22;27616;51.420;6.788;2023-02-28T00:37:29;-0.10;99.90
41928;DHT22;27616;51.420;6.788;2023-02-28T00:39:55;-0.10;99.90
41928;DHT22;27616;51.420;6.788;2023-02-28T00:42:22;-0.10;99.90
41928;DHT22;27616;51.420;6.788;2023-02-28T00:44:47;-0.10;99.90
41928;DHT22;27616;51.420;6.788;2023-02-28T00:47:13;-0.10;99.90
41928;DHT22;27616;51.420;6.788;2023-02-28T00:49:40;-0.10;99.90
41928;DHT22;27616;51.420;6.788;2023-02-28T00:52:05;-0.10;99.90
41928;DHT22;27616;51.420;6.788;2023-02-28T00:54:31;-0.20;99.90
41928;DHT22;27616;51.420;6.788;2023-02-28T00:56:57;-0.20;99.90
41928;DHT22;27616;51.420;6.788;2023-02-28T00:59:24;-0.20;99.90
41928;DHT22;27616;51.420;6.788;2023-02-28T01:01:50;-0.20;99.90
41928;DHT22;27616;51.420;6.788;2023-02-28T01:04:15;-0.30;99.90
41928;DHT22;27616;51.420;6.788;2023-02-28T01:06:41;-0.30;99.90
41928;DHT22;27616;51.420;6.788;2023-02-28T01:09:09;-0.30;99.90
41928;DHT22;27616;51.420;6.788;2023-02-28T01:11:35;-0.30;99.90
41928;DHT22;27616;51.420;6.788;2023-02-28T01:14:01;-0.30;99.90
41928;DHT22;27616;51.420;6.788;2023-02-28T01:16:28;-0.40;99.90
41928;DHT22;27616;51.420;6.788;2023-02-28T01:18:53;-0.40;99.90
41928;DHT22;27616;51.420;6.788;2023-02-28T01:21:20;-0.40;99.90
41928;DHT22;27616;51.420;6.788;2023-02-28T01:23:47;-0.40;99.90
41928;DHT22;27616;51.420;6.788;2023-02-28T01:26:22;-0.40;99.90
41928;DHT22;27616;51.420;6.788;2023-02-28T01:28:49;-0.40;99.90
41928;DHT22;27616;51.420;6.788;2023-02-28T01:31:15;-0.40;99.90
41928;DHT22;27616;51.420;6.788;2023-02-28T01:33:41;-0.40;99.90
41928;DHT22;27616;51.420;6.788;2023-02-28T01:36:12;-0.40;99.90
41928;DHT22;27616;51.420;6.788;2023-02-28T01:38:38;-0.40;99.90
41928;DHT22;27616;51.420;6.788;2023-02-28T01:41:05;-0.40;99.90
41928;DHT22;27616;51.420;6.788;2023-02-28T01:43:53;-0.40;99.90
41928;DHT22;27616;51.420;6.788;2023-02-28T01:46:19;-0.40;99.90
41928;DHT22;27616;51.420;6.788;2023-02-28T01:49:02;-0.40;99.90
41928;DHT22;27616;51.420;6.788;2023-02-28T01:51:44;-0.40;99.90
41928;DHT22;27616;51.420;6.788;2023-02-28T01:54:16;-0.40;99.90
41928;DHT22;27616;51.420;6.788;2023-02-28T01:57:03;-0.50;99.90
41928;DHT22;27616;51.420;6.788;2023-02-28T01:59:56;-0.50;99.90
41928;DHT22;27616;51.420;6.788;2023-02-28T02:02:24;-0.50;99.90
41928;DHT22;27616;51.420;6.788;2023-02-28T02:04:59;-0.50;99.90
41928;DHT22;27616;51.420;6.788;2023-02-28T02:07:30;-0.60;99.90
41928;DHT22;27616;51.420;6.788;2023-02-28T02:10:24;-0.60;99.90
41928;DHT22;27616;51.420;6.788;2023-02-28T02:13:05;-0.60;99.90
41928;DHT22;27616;51.420;6.788;2023-02-28T02:30:27;-0.60;99.90
41928;DHT22;27616;51.420;6.788;2023-02-28T02:33:06;-0.70;99.90
41928;DHT22;27616;51.420;6.788;2023-02-28T02:38:21;-0.70;99.90
41928;DHT22;27616;51.420;6.788;2023-02-28T02:41:16;-0.70;99.90
41928;DHT22;27616;51.420;6.788;2023-02-28T02:43:50;-0.70;99.90
41928;DHT22;27616;51.420;6.788;2023-02-28T02:46:30;-0.80;99.90
41928;DHT22;27616;51.420;6.788;2023-02-28T02:49:00;-0.80;99.90
41928;DHT22;27616;51.420;6.788;2023-02-28T02:51:27;-0.80;99.90
41928;DHT22;27616;51.420;6.788;2023-02-28T02:54:10;-0.80;99.90
41928;DHT22;27616;51.420;6.788;2023-02-28T02:56:41;-0.90;99.90
41928;DHT22;27616;51.420;6.788;2023-02-28T02:59:11;-0.90;99.90
41928;DHT22;27616;51.420;6.788;2023-02-28T03:01:38;-1.00;99.90
41928;DHT22;27616;51.420;6.788;2023-02-28T03:04:10;-1.00;99.90
41928;DHT22;27616;51.420;6.788;2023-02-28T03:06:37;-1.10;99.90
41928;DHT22;27616;51.420;6.788;2023-02-28T03:09:03;-1.10;99.90
41928;DHT22;27616;51.420;6.788;2023-02-28T03:11:30;-1.10;99.90
41928;DHT22;27616;51.420;6.788;2023-02-28T03:16:52;-1.20;99.90
41928;DHT22;27616;51.420;6.788;2023-02-28T03:19:49;-1.20;99.90
41928;DHT22;27616;51.420;6.788;2023-02-28T03:30:55;-1.20;99.90
41928;DHT22;27616;51.420;6.788;2023-02-28T03:33:32;-1.30;99.90
41928;DHT22;27616;51.420;6.788;2023-02-28T03:36:02;-1.20;99.90
41928;DHT22;27616;51.420;6.788;2023-02-28T03:41:10;-1.20;99.90
41928;DHT22;27616;51.420;6.788;2023-02-28T03:43:40;-1.20;99.90
41928;DHT22;27616;51.420;6.788;2023-02-28T03:46:10;-1.20;99.90
41928;DHT22;27616;51.420;6.788;2023-02-28T03:48:45;-1.20;99.90
41928;DHT22;27616;51.420;6.788;2023-02-28T03:51:16;-1.30;99.90
41928;DHT22;27616;51.420;6.788;2023-02-28T03:53:53;-1.30;99.90
41928;DHT22;27616;51.420;6.788;2023-02-28T03:56:25;-1.30;99.90
41928;DHT22;27616;51.420;6.788;2023-02-28T03:59:20;-1.30;99.90
41928;DHT22;27616;51.420;6.788;2023-02-28T04:01:50;-1.30;99.90
41928;DHT22;27616;51.420;6.788;2023-02-28T04:04:17;-1.30;99.90
41928;DHT22;27616;51.420;6.788;2023-02-28T04:06:44;-1.30;99.90
41928;DHT22;27616;51.420;6.788;2023-02-28T04:09:13;-1.30;99.90
41928;DHT22;27616;51.420;6.788;2023-02-28T04:11:40;-1.30;99.90
41928;DHT22;27616;51.420;6.788;2023-02-28T04:14:07;-1.40;99.90
41928;DHT22;27616;51.420;6.788;2023-02-28T04:16:34;-1.40;99.90
41928;DHT22;27616;51.420;6.788;2023-02-28T04:19:03;-1.40;99.90
41928;DHT22;27616;51.420;6.788;2023-02-28T04:21:45;-1.40;99.90
41928;DHT22;27616;51.420;6.788;2023-02-28T04:24:13;-1.50;99.90
41928;DHT22;27616;51.420;6.788;2023-02-28T04:26:42;-1.50;99.90
41928;DHT22;27616;51.420;6.788;2023-02-28T04:29:11;-1.50;99.90
41928;DHT22;27616;51.420;6.788;2023-02-28T04:31:37;-1.50;99.90
41928;DHT22;27616;51.420;6.788;2023-02-28T04:34:03;-1.50;99.90
41928;DHT22;27616;51.420;6.788;2023-02-28T04:36:29;-1.50;99.90
41928;DHT22;27616;51.420;6.788;2023-02-28T04:38:56;-1.50;99.90
41928;DHT22;27616;51.420;6.788;2023-02-28T04:41:22;-1.50;99.90
41928;DHT22;27616;51.420;6.788;2023-02-28T04:43:48;-1.50;99.90
41928;DHT22;27616;51.420;6.788;2023-02-28T04:46:14;-1.50;99.90
41928;DHT22;27616;51.420;6.788;2023-02-28T04:48:40;-1.50;99.90
41928;DHT22;27616;51.420;6.788;2023-02-28T04:51:14;-1.50;99.90
41928;DHT22;27616;51.420;6.788;2023-02-28T04:53:41;-1.50;99.90
41928;DHT22;27616;51.420;6.788;2023-02-28T04:56:10;-1.50;99.90
41928;DHT22;27616;51.420;6.788;2023-02-28T04:58:36;-1.50;99.90
41928;DHT22;27616;51.420;6.788;2023-02-28T05:01:16;-1.60;99.90
41928;DHT22;27616;51.420;6.788;2023-02-28T05:03:42;-1.60;99.90
41928;DHT22;27616;51.420;6.788;2023-02-28T05:06:09;-1.60;99.90
41928;DHT22;27616;51.420;6.788;2023-02-28T05:08:35;-1.60;99.90
41928;DHT22;27616;51.420;6.788;2023-02-28T05:11:02;-1.60;99.90
41928;DHT22;27616;51.420;6.788;2023-02-28T05:13:28;-1.70;99.90
41928;DHT22;27616;51.420;6.788;2023-02-28T05:15:54;-1.70;99.90
41928;DHT22;27616;51.420;6.788;2023-02-28T05:18:20;-1.70;99.90
41928;DHT22;27616;51.420;6.788;2023-02-28T05:20:46;-1.70;99.90
41928;DHT22;27616;51.420;6.788;2023-02-28T05:23:12;-1.70;99.90
41928;DHT22;27616;51.420;6.788;2023-02-28T05:25:39;-1.70;99.90
41928;DHT22;27616;51.420;6.788;2023-02-28T05:28:05;-1.70;99.90
41928;DHT22;27616;51.420;6.788;2023-02-28T05:30:31;-1.80;99.90
41928;DHT22;27616;51.420;6.788;2023-02-28T05:32:57;-1.80;99.90
41928;DHT22;27616;51.420;6.788;2023-02-28T05:35:24;-1.80;99.90
41928;DHT22;27616;51.420;6.788;2023-02-28T05:37:50;-1.80;99.90
41928;DHT22;27616;51.420;6.788;2023-02-28T05:40:16;-1.70;99.90
41928;DHT22;27616;51.420;6.788;2023-02-28T05:42:42;-1.70;99.90
41928;DHT22;27616;51.420;6.788;2023-02-28T05:45:08;-1.80;99.90
41928;DHT22;27616;51.420;6.788;2023-02-28T05:47:34;-1.80;99.90
41928;DHT22;27616;51.420;6.788;2023-02-28T05:50:00;-1.80;99.90
41928;DHT22;27616;51.420;6.788;2023-02-28T05:52:27;-1.70;99.90
41928;DHT22;27616;51.420;6.788;2023-02-28T05:54:53;-1.80;99.90
41928;DHT22;27616;51.420;6.788;2023-02-28T05:57:18;-1.80;99.90
41928;DHT22;27616;51.420;6.788;2023-02-28T05:59:44;-1.80;99.90
41928;DHT22;27616;51.420;6.788;2023-02-28T06:02:15;-1.80;99.90
41928;DHT22;27616;51.420;6.788;2023-02-28T06:04:41;-1.70;99.90
41928;DHT22;27616;51.420;6.788;2023-02-28T06:07:08;-1.70;99.90
41928;DHT22;27616;51.420;6.788;2023-02-28T06:09:34;-1.70;99.90
41928;DHT22;27616;51.420;6.788;2023-02-28T06:12:02;-1.70;99.90
41928;DHT22;27616;51.420;6.788;2023-02-28T06:14:29;-1.70;99.90
41928;DHT22;27616;51.420;6.788;2023-02-28T06:16:57;-1.70;99.90
41928;DHT22;27616;51.420;6.788;2023-02-28T06:19:23;-1.70;99.90
41928;DHT22;27616;51.420;6.788;2023-02-28T06:21:51;-1.70;99.90
41928;DHT22;27616;51.420;6.788;2023-02-28T06:24:21;-1.70;99.90
41928;DHT22;27616;51.420;6.788;2023-02-28T06:26:48;-1.70;99.90
41928;DHT22;27616;51.420;6.788;2023-02-28T06:29:14;-1.70;99.90
41928;DHT22;27616;51.420;6.788;2023-02-28T06:31:47;-1.70;99.90
41928;DHT22;27616;51.420;6.788;2023-02-28T06:34:13;-1.60;99.90
41928;DHT22;27616;51.420;6.788;2023-02-28T06:36:40;-1.60;99.90
41928;DHT22;27616;51.420;6.788;2023-02-28T06:39:07;-1.60;99.90
41928;DHT22;27616;51.420;6.788;2023-02-28T06:41:33;-1.60;99.90
41928;DHT22;27616;51.420;6.788;2023-02-28T06:44:14;-1.60;99.90
41928;DHT22;27616;51.420;6.788;2023-02-28T06:46:41;-1.50;99.90
41928;DHT22;27616;51.420;6.788;2023-02-28T06:49:07;-1.50;99.90
41928;DHT22;27616;51.420;6.788;2023-02-28T06:51:40;-1.50;99.90
41928;DHT22;27616;51.420;6.788;2023-02-28T06:54:07;-1.50;99.90
41928;DHT22;27616;51.420;6.788;2023-02-28T06:56:36;-1.50;99.90
41928;DHT22;27616;51.420;6.788;2023-02-28T06:59:02;-1.50;99.90
41928;DHT22;27616;51.420;6.788;2023-02-28T07:01:29;-1.40;99.90
41928;DHT22;27616;51.420;6.788;2023-02-28T07:03:54;-1.40;99.90
41928;DHT22;27616;51.420;6.788;2023-02-28T07:06:24;-1.40;99.90
41928;DHT22;27616;51.420;6.788;2023-02-28T07:08:51;-1.30;99.90
41928;DHT22;27616;51.420;6.788;2023-02-28T07:11:18;-1.30;99.90
41928;DHT22;27616;51.420;6.788;2023-02-28T07:13:43;-1.20;99.90
41928;DHT22;27616;51.420;6.788;2023-02-28T07:16:10;-1.20;99.90
41928;DHT22;27616;51.420;6.788;2023-02-28T07:18:37;-1.10;99.90
41928;DHT22;27616;51.420;6.788;2023-02-28T07:21:05;-1.10;99.90
41928;DHT22;27616;51.420;6.788;2023-02-28T07:23:31;-1.10;99.90
41928;DHT22;27616;51.420;6.788;2023-02-28T07:25:57;-1.00;99.90
41928;DHT22;27616;51.420;6.788;2023-02-28T07:28:23;-1.00;99.90
41928;DHT22;27616;51.420;6.788;2023-02-28T07:30:49;-0.90;99.90
41928;DHT22;27616;51.420;6.788;2023-02-28T07:33:15;-0.90;99.90
41928;DHT22;27616;51.420;6.788;2023-02-28T07:35:41;-0.80;99.90
41928;DHT22;27616;51.420;6.788;2023-02-28T07:38:07;-0.80;99.90
41928;DHT22;27616;51.420;6.788;2023-02-28T07:40:34;-0.70;99.90
41928;DHT22;27616;51.420;6.788;2023-02-28T07:43:00;-0.40;99.90
41928;DHT22;27616;51.420;6.788;2023-02-28T07:45:27;0.10;99.90
41928;DHT22;27616;51.420;6.788;2023-02-28T07:47:54;0.40;99.90
41928;DHT22;27616;51.420;6.788;2023-02-28T07:50:21;0.60;99.90
41928;DHT22;27616;51.420;6.788;2023-02-28T07:52:46;0.80;99.90
41928;DHT22;27616;51.420;6.788;2023-02-28T07:55:13;0.80;99.90
41928;DHT22;27616;51.420;6.788;2023-02-28T07:57:40;0.90;99.90
41928;DHT22;27616;51.420;6.788;2023-02-28T08:00:08;1.10;99.90
41928;DHT22;27616;51.420;6.788;2023-02-28T08:02:39;1.20;99.90
41928;DHT22;27616;51.420;6.788;2023-02-28T08:05:06;1.20;99.90
41928;DHT22;27616;51.420;6.788;2023-02-28T08:07:32;1.20;99.90
41928;DHT22;27616;51.420;6.788;2023-02-28T08:09:59;1.10;99.90
41928;DHT22;27616;51.420;6.788;2023-02-28T08:12:25;1.10;99.90
41928;DHT22;27616;51.420;6.788;2023-02-28T08:14:51;1.10;99.90
41928;DHT22;27616;51.420;6.788;2023-02-28T08:17:16;1.10;99.90
41928;DHT22;27616;51.420;6.788;2023-02-28T08:19:44;1.10;99.90
41928;DHT22;27616;51.420;6.788;2023-02-28T08:22:10;1.20;99.90
41928;DHT22;27616;51.420;6.788;2023-02-28T08:24:36;1.30;99.90
41928;DHT22;27616;51.420;6.788;2023-02-28T08:27:01;1.50;99.90
41928;DHT22;27616;51.420;6.788;2023-02-28T08:29:27;1.80;99.90
41928;DHT22;27616;51.420;6.788;2023-02-28T08:31:53;2.00;99.90
41928;DHT22;27616;51.420;6.788;2023-02-28T08:34:18;2.40;99.90
41928;DHT22;27616;51.420;6.788;2023-02-28T08:36:44;2.70;99.90
41928;DHT22;27616;51.420;6.788;2023-02-28T08:39:11;3.10;99.90
41928;DHT22;27616;51.420;6.788;2023-02-28T08:41:37;3.20;99.90
41928;DHT22;27616;51.420;6.788;2023-02-28T08:44:03;3.10;99.90
41928;DHT22;27616;51.420;6.788;2023-02-28T08:46:29;3.00;99.90
41928;DHT22;27616;51.420;6.788;2023-02-28T08:48:56;2.90;99.90
41928;DHT22;27616;51.420;6.788;2023-02-28T08:51:25;2.70;99.90
41928;DHT22;27616;51.420;6.788;2023-02-28T08:53:55;2.80;99.90
41928;DHT22;27616;51.420;6.788;2023-02-28T08:56:23;2.70;99.90
41928;DHT22;27616;51.420;6.788;2023-02-28T08:58:49;2.80;99.90
41928;DHT22;27616;51.420;6.788;2023-02-28T09:01:22;2.70;99.90
41928;DHT22;27616;51.420;6.788;2023-02-28T09:03:49;2.90;99.90
41928;DHT22;27616;51.420;6.788;2023-02-28T09:06:18;3.00;99.00
41928;DHT22;27616;51.420;6.788;2023-02-28T09:08:44;3.10;98.50
41928;DHT22;27616;51.420;6.788;2023-02-28T09:11:11;3.20;98.20
41928;DHT22;27616;51.420;6.788;2023-02-28T09:13:37;3.50;98.50
41928;DHT22;27616;51.420;6.788;2023-02-28T09:16:05;3.70;97.60
41928;DHT22;27616;51.420;6.788;2023-02-28T09:18:33;4.00;96.20
41928;DHT22;27616;51.420;6.788;2023-02-28T09:20:58;4.30;94.10
41928;DHT22;27616;51.420;6.788;2023-02-28T09:23:24;4.50;94.00
41928;DHT22;27616;51.420;6.788;2023-02-28T09:25:53;4.60;92.70
41928;DHT22;27616;51.420;6.788;2023-02-28T09:28:20;4.50;92.20
41928;DHT22;27616;51.420;6.788;2023-02-28T09:30:48;4.60;92.30
41928;DHT22;27616;51.420;6.788;2023-02-28T09:33:15;4.90;92.30
41928;DHT22;27616;51.420;6.788;2023-02-28T09:35:41;5.00;91.80
41928;DHT22;27616;51.420;6.788;2023-02-28T09:38:08;5.10;91.40
41928;DHT22;27616;51.420;6.788;2023-02-28T09:40:45;5.10;90.10
41928;DHT22;27616;51.420;6.788;2023-02-28T09:43:14;5.60;88.60
41928;DHT22;27616;51.420;6.788;2023-02-28T09:45:42;6.00;85.10
41928;DHT22;27616;51.420;6.788;2023-02-28T09:48:24;6.40;87.00
41928;DHT22;27616;51.420;6.788;2023-02-28T09:50:57;6.80;83.60
41928;DHT22;27616;51.420;6.788;2023-02-28T09:53:35;7.40;81.80
41928;DHT22;27616;51.420;6.788;2023-02-28T09:56:21;8.00;76.60
41928;DHT22;27616;51.420;6.788;2023-02-28T10:01:55;8.80;72.30
41928;DHT22;27616;51.420;6.788;2023-02-28T10:04:50;8.70;71.20
41928;DHT22;27616;51.420;6.788;2023-02-28T10:10:32;9.10;70.80
41928;DHT22;27616;51.420;6.788;2023-02-28T10:13:01;9.60;67.70
41928;DHT22;27616;51.420;6.788;2023-02-28T10:15:30;9.70;67.20
41928;DHT22;27616;51.420;6.788;2023-02-28T10:18:00;10.40;65.20
41928;DHT22;27616;51.420;6.788;2023-02-28T10:20:28;10.50;64.10
41928;DHT22;27616;51.420;6.788;2023-02-28T10:23:19;11.40;62.40
41928;DHT22;27616;51.420;6.788;2023-02-28T10:25:47;11.60;61.60
41928;DHT22;27616;51.420;6.788;2023-02-28T10:28:16;11.60;62.20
41928;DHT22;27616;51.420;6.788;2023-02-28T10:30:49;11.50;58.00
41928;DHT22;27616;51.420;6.788;2023-02-28T10:33:35;11.90;57.20
41928;DHT22;27616;51.420;6.788;2023-02-28T10:36:03;12.90;54.80
41928;DHT22;27616;51.420;6.788;2023-02-28T10:38:37;13.20;53.80
41928;DHT22;27616;51.420;6.788;2023-02-28T10:41:09;12.20;52.90
41928;DHT22;27616;51.420;6.788;2023-02-28T10:43:37;10.60;54.80
41928;DHT22;27616;51.420;6.788;2023-02-28T10:48:40;8.80;58.40
41928;DHT22;27616;51.420;6.788;2023-02-28T10:51:13;7.90;59.30
41928;DHT22;27616;51.420;6.788;2023-02-28T10:53:50;7.70;62.20
41928;DHT22;27616;51.420;6.788;2023-02-28T10:56:18;7.80;61.70
41928;DHT22;27616;51.420;6.788;2023-02-28T11:01:44;8.00;59.80
41928;DHT22;27616;51.420;6.788;2023-02-28T11:04:17;7.80;60.30
41928;DHT22;27616;51.420;6.788;2023-02-28T11:06:45;7.80;61.10
41928;DHT22;27616;51.420;6.788;2023-02-28T11:09:28;7.80;62.00
41928;DHT22;27616;51.420;6.788;2023-02-28T11:11:57;8.30;62.50
41928;DHT22;27616;51.420;6.788;2023-02-28T11:14:28;8.70;60.80
41928;DHT22;27616;51.420;6.788;2023-02-28T11:16:59;8.70;60.40
41928;DHT22;27616;51.420;6.788;2023-02-28T11:19:34;8.30;59.90
41928;DHT22;27616;51.420;6.788;2023-02-28T11:22:02;8.00;60.00
41928;DHT22;27616;51.420;6.788;2023-02-28T11:24:33;8.00;60.90
41928;DHT22;27616;51.420;6.788;2023-02-28T11:26:59;8.40;61.70
41928;DHT22;27616;51.420;6.788;2023-02-28T11:29:28;8.90;59.80
41928;DHT22;27616;51.420;6.788;2023-02-28T11:32:19;8.50;60.30
41928;DHT22;27616;51.420;6.788;2023-02-28T11:34:47;8.80;58.50
41928;DHT22;27616;51.420;6.788;2023-02-28T11:37:26;8.90;58.00
41928;DHT22;27616;51.420;6.788;2023-02-28T11:39:52;9.00;58.60
41928;DHT22;27616;51.420;6.788;2023-02-28T11:45:24;9.30;57.70
41928;DHT22;27616;51.420;6.788;2023-02-28T11:48:04;9.40;57.90
41928;DHT22;27616;51.420;6.788;2023-02-28T11:51:03;9.60;57.70
41928;DHT22;27616;51.420;6.788;2023-02-28T11:56:09;9.70;56.70
41928;DHT22;27616;51.420;6.788;2023-02-28T12:06:49;9.80;57.50
41928;DHT22;27616;51.420;6.788;2023-02-28T12:15:20;12.00;52.50
41928;DHT22;27616;51.420;6.788;2023-02-28T12:21:20;12.50;52.10
41928;DHT22;27616;51.420;6.788;2023-02-28T12:31:41;9.80;56.10
41928;DHT22;27616;51.420;6.788;2023-02-28T12:34:14;9.80;56.10
41928;DHT22;27616;51.420;6.788;2023-02-28T12:36:43;10.30;54.90
41928;DHT22;27616;51.420;6.788;2023-02-28T12:39:21;10.50;54.10
41928;DHT22;27616;51.420;6.788;2023-02-28T12:41:54;10.70;56.60
41928;DHT22;27616;51.420;6.788;2023-02-28T12:44:39;11.40;55.50
41928;DHT22;27616;51.420;6.788;2023-02-28T12:47:16;11.70;53.50
41928;DHT22;27616;51.420;6.788;2023-02-28T12:49:46;11.90;53.50
41928;DHT22;27616;51.420;6.788;2023-02-28T12:52:19;12.50;52.00
41928;DHT22;27616;51.420;6.788;2023-02-28T12:54:53;12.30;51.50
41928;DHT22;27616;51.420;6.788;2023-02-28T12:57:52;11.80;52.00
41928;DHT22;27616;51.420;6.788;2023-02-28T13:00:23;11.60;52.90
41928;DHT22;27616;51.420;6.788;2023-02-28T13:06:08;9.80;55.50
41928;DHT22;27616;51.420;6.788;2023-02-28T13:08:59;9.30;58.00
41928;DHT22;27616;51.420;6.788;2023-02-28T13:11:28;9.80;57.10
41928;DHT22;27616;51.420;6.788;2023-02-28T13:14:03;10.00;57.50
41928;DHT22;27616;51.420;6.788;2023-02-28T13:16:54;9.90;56.20
41928;DHT22;27616;51.420;6.788;2023-02-28T13:19:22;10.00;55.30
41928;DHT22;27616;51.420;6.788;2023-02-28T13:21:50;9.80;56.30
41928;DHT22;27616;51.420;6.788;2023-02-28T13:24:39;10.80;54.70
41928;DHT22;27616;51.420;6.788;2023-02-28T13:29:51;12.80;51.90
41928;DHT22;27616;51.420;6.788;2023-02-28T13:32:34;13.40;50.30
41928;DHT22;27616;51.420;6.788;2023-02-28T13:37:36;13.50;49.80
41928;DHT22;27616;51.420;6.788;2023-02-28T13:42:55;11.10;53.00
41928;DHT22;27616;51.420;6.788;2023-02-28T13:45:24;9.90;55.90
41928;DHT22;27616;51.420;6.788;2023-02-28T13:48:00;10.30;55.70
41928;DHT22;27616;51.420;6.788;2023-02-28T13:50:28;11.10;54.50
41928;DHT22;27616;51.420;6.788;2023-02-28T14:06:16;11.50;54.00
41928;DHT22;27616;51.420;6.788;2023-02-28T14:11:39;9.50;59.30
41928;DHT22;27616;51.420;6.788;2023-02-28T14:14:07;9.20;61.20
41928;DHT22;27616;51.420;6.788;2023-02-28T14:16:43;8.60;61.90
41928;DHT22;27616;51.420;6.788;2023-02-28T14:24:42;7.40;65.60
41928;DHT22;27616;51.420;6.788;2023-02-28T14:30:40;6.90;67.10
41928;DHT22;27616;51.420;6.788;2023-02-28T14:33:25;6.60;67.30
41928;DHT22;27616;51.420;6.788;2023-02-28T14:38:30;6.40;68.50
41928;DHT22;27616;51.420;6.788;2023-02-28T14:40:58;6.50;68.30
41928;DHT22;27616;51.420;6.788;2023-02-28T14:43:27;6.50;69.60
41928;DHT22;27616;51.420;6.788;2023-02-28T14:46:01;6.40;68.70
41928;DHT22;27616;51.420;6.788;2023-02-28T14:48:27;6.50;68.90
41928;DHT22;27616;51.420;6.788;2023-02-28T14:50:56;6.50;69.30
41928;DHT22;27616;51.420;6.788;2023-02-28T14:53:34;6.50;69.10
41928;DHT22;27616;51.420;6.788;2023-02-28T14:56:01;6.40;67.90
41928;DHT22;27616;51.420;6.788;2023-02-28T14:58:31;6.30;69.50
41928;DHT22;27616;51.420;6.788;2023-02-28T15:00:59;6.30;69.20
41928;DHT22;27616;51.420;6.788;2023-02-28T15:03:32;6.20;69.80
41928;DHT22;27616;51.420;6.788;2023-02-28T15:06:00;6.20;70.40
41928;DHT22;27616;51.420;6.788;2023-02-28T15:08:28;6.10;70.60
41928;DHT22;27616;51.420;6.788;2023-02-28T15:10:59;6.10;70.90
41928;DHT22;27616;51.420;6.788;2023-02-28T15:13:51;6.10;71.80
41928;DHT22;27616;51.420;6.788;2023-02-28T15:16:21;6.10;71.00
41928;DHT22;27616;51.420;6.788;2023-02-28T15:18:51;6.10;69.90
41928;DHT22;27616;51.420;6.788;2023-02-28T15:21:18;6.10;70.00
41928;DHT22;27616;51.420;6.788;2023-02-28T15:23:55;6.00;70.40
41928;DHT22;27616;51.420;6.788;2023-02-28T15:26:26;5.90;70.30
41928;DHT22;27616;51.420;6.788;2023-02-28T15:29:00;5.90;71.00
41928;DHT22;27616;51.420;6.788;2023-02-28T15:31:39;6.00;71.80
41928;DHT22;27616;51.420;6.788;2023-02-28T15:34:12;6.00;72.70
41928;DHT22;27616;51.420;6.788;2023-02-28T15:36:43;5.90;73.10
41928;DHT22;27616;51.420;6.788;2023-02-28T15:39:24;5.90;73.10
41928;DHT22;27616;51.420;6.788;2023-02-28T15:41:50;5.80;73.40
41928;DHT22;27616;51.420;6.788;2023-02-28T15:44:33;5.60;74.10
41928;DHT22;27616;51.420;6.788;2023-02-28T15:47:14;5.60;74.10
41928;DHT22;27616;51.420;6.788;2023-02-28T15:49:46;5.50;73.00
41928;DHT22;27616;51.420;6.788;2023-02-28T15:52:15;5.50;73.90
41928;DHT22;27616;51.420;6.788;2023-02-28T15:54:44;5.50;73.90
41928;DHT22;27616;51.420;6.788;2023-02-28T15:57:25;5.50;74.50
41928;DHT22;27616;51.420;6.788;2023-02-28T15:59:57;5.40;74.80
41928;DHT22;27616;51.420;6.788;2023-02-28T16:02:35;5.40;74.70
41928;DHT22;27616;51.420;6.788;2023-02-28T16:07:39;5.40;74.90
41928;DHT22;27616;51.420;6.788;2023-02-28T16:10:07;5.40;74.50
41928;DHT22;27616;51.420;6.788;2023-02-28T16:12:36;5.40;73.90
41928;DHT22;27616;51.420;6.788;2023-02-28T16:15:07;5.40;73.90
41928;DHT22;27616;51.420;6.788;2023-02-28T16:17:35;5.30;74.80
41928;DHT22;27616;51.420;6.788;2023-02-28T16:20:16;5.20;75.40
41928;DHT22;27616;51.420;6.788;2023-02-28T16:22:42;5.20;76.30
41928;DHT22;27616;51.420;6.788;2023-02-28T16:25:16;5.10;77.60
41928;DHT22;27616;51.420;6.788;2023-02-28T16:27:43;5.10;77.80
41928;DHT22;27616;51.420;6.788;2023-02-28T16:30:23;5.00;78.30
41928;DHT22;27616;51.420;6.788;2023-02-28T16:32:50;5.00;79.20
41928;DHT22;27616;51.420;6.788;2023-02-28T16:35:17;5.00;80.10
41928;DHT22;27616;51.420;6.788;2023-02-28T16:37:43;4.90;80.30
41928;DHT22;27616;51.420;6.788;2023-02-28T16:40:14;4.80;80.90
41928;DHT22;27616;51.420;6.788;2023-02-28T16:42:40;4.80;81.50
41928;DHT22;27616;51.420;6.788;2023-02-28T16:45:23;4.70;81.50
41928;DHT22;27616;51.420;6.788;2023-02-28T16:47:49;4.70;81.70
41928;DHT22;27616;51.420;6.788;2023-02-28T16:50:20;4.60;81.70
41928;DHT22;27616;51.420;6.788;2023-02-28T16:52:46;4.50;82.10
41928;DHT22;27616;51.420;6.788;2023-02-28T16:55:12;4.50;82.20
41928;DHT22;27616;51.420;6.788;2023-02-28T16:57:39;4.40;82.20
41928;DHT22;27616;51.420;6.788;2023-02-28T17:00:07;4.40;82.20
41928;DHT22;27616;51.420;6.788;2023-02-28T17:02:34;4.40;82.80
41928;DHT22;27616;51.420;6.788;2023-02-28T17:05:00;4.30;83.30
41928;DHT22;27616;51.420;6.788;2023-02-28T17:07:26;4.20;83.50
41928;DHT22;27616;51.420;6.788;2023-02-28T17:09:51;4.20;83.70
41928;DHT22;27616;51.420;6.788;2023-02-28T17:12:17;4.20;83.80
41928;DHT22;27616;51.420;6.788;2023-02-28T17:14:43;4.20;84.10
41928;DHT22;27616;51.420;6.788;2023-02-28T17:17:19;4.20;84.00
41928;DHT22;27616;51.420;6.788;2023-02-28T17:19:46;4.10;84.60
41928;DHT22;27616;51.420;6.788;2023-02-28T17:22:12;4.10;84.40
41928;DHT22;27616;51.420;6.788;2023-02-28T17:24:37;4.10;85.20
41928;DHT22;27616;51.420;6.788;2023-02-28T17:27:04;4.00;85.10
41928;DHT22;27616;51.420;6.788;2023-02-28T17:29:29;4.00;85.50
41928;DHT22;27616;51.420;6.788;2023-02-28T17:31:55;3.90;85.90
41928;DHT22;27616;51.420;6.788;2023-02-28T17:34:21;3.90;86.00
41928;DHT22;27616;51.420;6.788;2023-02-28T17:36:49;3.90;86.60
41928;DHT22;27616;51.420;6.788;2023-02-28T17:39:18;3.80;87.10
41928;DHT22;27616;51.420;6.788;2023-02-28T17:41:51;3.80;87.20
41928;DHT22;27616;51.420;6.788;2023-02-28T17:44:18;3.80;88.50
41928;DHT22;27616;51.420;6.788;2023-02-28T17:46:45;3.80;87.50
41928;DHT22;27616;51.420;6.788;2023-02-28T17:49:11;3.70;87.50
41928;DHT22;27616;51.420;6.788;2023-02-28T17:51:37;3.70;88.50